Time;durP1;ratioP1;P1;durP2;ratioP2;P2;SDS_P1;SDS_P2;PMS_P1;PMS_P2;Temp;Humidity;BMP_temperature;BMP_pressure;BME280_temperature;BME280_humidity;BME280_pressure;Samples;Min_cycle;Max_cycle;Signal;HPM_P1;HPM_P2
2023/06/08 00:00:18;;;;;;;14.13;7.90;;;;;;;22.13;60.67;99489.78;4472249;32;33620;-66
2023/06/08 00:02:46;;;;;;;9.55;5.82;;;;;;;22.10;60.68;99484.72;4476404;31;33912;-64
2023/06/08 00:05:16;;;;;;;9.32;5.78;;;;;;;22.08;60.63;99484.06;4476384;31;34726;-63
2023/06/08 00:07:44;;;;;;;13.07;5.72;;;;;;;22.04;60.66;99480.91;4480505;32;33274;-65
2023/06/08 00:10:12;;;;;;;11.70;5.20;;;;;;;22.04;60.76;99485.50;4477996;31;33730;-65
2023/06/08 00:12:39;;;;;;;11.18;6.82;;;;;;;21.99;60.73;99477.94;4478054;31;36156;-65
2023/06/08 00:15:07;;;;;;;11.40;5.40;;;;;;;22.03;60.51;99476.50;4478825;31;33759;-64
2023/06/08 00:17:35;;;;;;;11.77;6.30;;;;;;;21.97;60.49;99468.25;4477513;32;33419;-64
2023/06/08 00:20:08;;;;;;;10.30;5.78;;;;;;;22.01;60.27;99473.13;4479041;31;33792;-65
2023/06/08 00:22:36;;;;;;;11.00;6.60;;;;;;;22.06;60.09;99475.28;4479301;31;32647;-67
2023/06/08 00:25:05;;;;;;;9.18;5.32;;;;;;;22.03;60.17;99464.75;4477817;31;33662;-65
2023/06/08 00:27:34;;;;;;;9.75;7.05;;;;;;;21.96;60.34;99461.09;4478646;32;34212;-66
2023/06/08 00:30:02;;;;;;;10.43;5.68;;;;;;;21.97;60.30;99460.09;4476492;31;35160;-65
2023/06/08 00:32:30;;;;;;;9.18;5.87;;;;;;;21.91;60.67;99461.69;4478956;31;33953;-66
2023/06/08 00:34:58;;;;;;;10.82;6.28;;;;;;;21.90;60.68;99456.47;4475468;32;34513;-66
2023/06/08 00:37:26;;;;;;;12.10;6.80;;;;;;;21.85;60.93;99462.47;4476438;31;30952;-68
2023/06/08 00:39:53;;;;;;;11.98;7.20;;;;;;;21.88;60.79;99459.37;4479956;32;35124;-66
2023/06/08 00:42:21;;;;;;;13.65;8.45;;;;;;;21.80;60.91;99467.69;4478250;31;34817;-65
2023/06/08 00:44:49;;;;;;;14.73;9.00;;;;;;;21.74;61.25;99460.28;4470008;31;30894;-65
2023/06/08 00:47:16;;;;;;;20.62;8.63;;;;;;;21.75;61.24;99465.53;4478558;31;33992;-64
2023/06/08 00:49:45;;;;;;;13.75;7.35;;;;;;;21.74;61.42;99461.13;4480495;32;33456;-64
2023/06/08 00:52:15;;;;;;;12.37;6.75;;;;;;;21.73;61.44;99467.59;4477359;31;34207;-67
2023/06/08 00:54:43;;;;;;;11.73;7.30;;;;;;;21.79;61.34;99465.97;4477119;32;32544;-64
2023/06/08 00:57:12;;;;;;;12.55;7.45;;;;;;;21.86;61.16;99464.16;4472713;31;33296;-64
2023/06/08 00:59:41;;;;;;;10.43;6.47;;;;;;;21.82;61.30;99471.03;4474872;32;32993;-66
2023/06/08 01:02:10;;;;;;;14.52;7.15;;;;;;;21.85;61.20;99473.38;4479186;32;33617;-65
2023/06/08 01:04:39;;;;;;;15.10;7.40;;;;;;;21.76;61.63;99467.19;4473769;31;33842;-67
2023/06/08 01:07:16;;;;;;;12.75;6.95;;;;;;;21.85;61.39;99474.22;4477966;32;33259;-64
2023/06/08 01:09:49;;;;;;;12.80;7.45;;;;;;;21.90;61.48;99473.66;4474243;31;33430;-64
2023/06/08 01:12:38;;;;;;;12.45;6.30;;;;;;;21.92;61.42;99470.72;4480135;32;35142;-64
2023/06/08 01:15:18;;;;;;;11.48;7.22;;;;;;;21.96;61.39;99466.56;4475432;31;34734;-64
2023/06/08 01:17:52;;;;;;;10.52;5.75;;;;;;;21.90;61.65;99479.09;4480119;31;33063;-67
2023/06/08 01:21:07;;;;;;;11.63;7.28;;;;;;;21.97;61.43;99474.56;4469820;32;33635;-64
2023/06/08 01:24:16;;;;;;;11.18;7.10;;;;;;;21.95;61.45;99482.06;4450335;32;33831;-64
2023/06/08 01:26:49;;;;;;;11.48;6.15;;;;;;;21.97;61.59;99476.44;4445864;32;33281;-66
2023/06/08 01:29:25;;;;;;;12.82;7.62;;;;;;;21.96;61.47;99474.72;4473246;31;34067;-67
2023/06/08 01:31:54;;;;;;;10.82;7.40;;;;;;;22.01;61.20;99480.44;4478784;31;34412;-68
2023/06/08 01:34:22;;;;;;;9.95;5.80;;;;;;;22.05;61.01;99477.16;4480583;32;33732;-65
2023/06/08 01:37:11;;;;;;;11.02;6.30;;;;;;;22.08;60.85;99476.72;4480748;31;33453;-67
2023/06/08 01:40:00;;;;;;;15.10;7.55;;;;;;;22.08;60.95;99475.91;4478902;31;33582;-65
2023/06/08 01:42:28;;;;;;;15.68;6.93;;;;;;;22.05;61.26;99470.84;4480749;31;34124;-67
2023/06/08 01:45:16;;;;;;;12.75;7.50;;;;;;;22.10;61.17;99471.09;4477111;32;33110;-67
2023/06/08 01:47:49;;;;;;;9.93;5.90;;;;;;;22.07;61.35;99477.78;4479367;31;33807;-66
2023/06/08 01:50:18;;;;;;;10.98;7.45;;;;;;;22.08;61.37;99471.28;4481551;32;34346;-65
2023/06/08 01:52:45;;;;;;;11.90;7.78;;;;;;;22.03;61.72;99472.94;4480151;31;33626;-65
2023/06/08 01:55:14;;;;;;;13.70;7.72;;;;;;;22.09;61.60;99474.87;4473332;32;33085;-68
2023/06/08 01:57:43;;;;;;;11.95;6.57;;;;;;;22.17;61.10;99477.47;4477844;31;33767;-66
2023/06/08 02:00:15;;;;;;;11.57;7.47;;;;;;;22.17;61.08;99471.19;4477835;31;32268;-66
2023/06/08 02:02:44;;;;;;;13.07;7.32;;;;;;;22.16;61.24;99467.63;4480097;32;33785;-65
2023/06/08 02:05:14;;;;;;;12.55;8.35;;;;;;;22.11;61.52;99470.06;4479931;31;34029;-65
2023/06/08 02:07:42;;;;;;;14.55;7.43;;;;;;;22.01;62.02;99459.50;4478368;32;32706;-65
2023/06/08 02:10:11;;;;;;;9.57;6.55;;;;;;;22.01;62.18;99458.66;4478845;31;32824;-66
2023/06/08 02:12:39;;;;;;;11.73;6.62;;;;;;;22.17;61.55;99468.47;4475469;31;33566;-68
2023/06/08 02:15:07;;;;;;;17.30;8.02;;;;;;;22.13;61.68;99465.25;4479464;31;33678;-65
2023/06/08 02:17:35;;;;;;;11.25;8.13;;;;;;;22.20;61.43;99465.34;4475285;31;34867;-65
2023/06/08 02:20:07;;;;;;;11.73;5.47;;;;;;;22.28;61.24;99459.78;4478428;31;33191;-66
2023/06/08 02:22:37;;;;;;;11.57;6.95;;;;;;;22.27;61.20;99466.25;4479630;32;35042;-65
2023/06/08 02:25:07;;;;;;;13.95;7.87;;;;;;;22.18;61.48;99459.25;4474988;32;34095;-66
2023/06/08 02:27:38;;;;;;;14.52;7.47;;;;;;;22.24;61.24;99464.75;4473308;31;33070;-66
2023/06/08 02:30:07;;;;;;;11.30;6.68;;;;;;;22.17;61.29;99463.03;4479911;32;33845;-65
2023/06/08 02:32:41;;;;;;;9.30;5.78;;;;;;;22.12;61.22;99463.59;4480246;31;33824;-65
2023/06/08 02:35:10;;;;;;;11.12;6.30;;;;;;;22.11;61.39;99459.16;4479056;31;33906;-65
2023/06/08 02:37:38;;;;;;;15.45;6.72;;;;;;;22.03;61.59;99456.59;4477667;31;34530;-65
2023/06/08 02:40:07;;;;;;;10.98;7.07;;;;;;;21.95;61.99;99456.69;4479803;32;33603;-65
2023/06/08 02:42:36;;;;;;;24.90;6.78;;;;;;;21.96;61.90;99461.97;4474572;32;33754;-65
2023/06/08 02:45:05;;;;;;;13.52;7.93;;;;;;;21.98;61.85;99448.97;4473793;31;33977;-67
2023/06/08 02:47:32;;;;;;;13.70;7.03;;;;;;;22.02;61.65;99458.47;4482004;31;33646;-65
2023/06/08 02:50:00;;;;;;;14.55;8.75;;;;;;;22.04;61.58;99456.38;4480694;32;34222;-65
2023/06/08 02:52:30;;;;;;;13.77;7.68;;;;;;;22.01;61.88;99454.03;4483846;32;33601;-65
2023/06/08 02:54:57;;;;;;;11.60;7.37;;;;;;;22.04;62.03;99452.81;4478387;32;34143;-66
2023/06/08 02:57:25;;;;;;;11.32;6.00;;;;;;;22.05;62.07;99449.91;4481468;31;32524;-66
2023/06/08 02:59:54;;;;;;;17.20;7.68;;;;;;;22.12;62.11;99457.25;4483639;32;33483;-67
2023/06/08 03:02:22;;;;;;;15.63;8.90;;;;;;;22.11;62.05;99450.97;4482176;31;34977;-68
2023/06/08 03:04:52;;;;;;;14.32;7.93;;;;;;;22.16;61.75;99453.16;4483529;32;33590;-63
2023/06/08 03:07:20;;;;;;;13.13;7.75;;;;;;;22.16;61.73;99443.09;4482135;32;34765;-64
2023/06/08 03:09:48;;;;;;;12.98;7.15;;;;;;;22.14;61.71;99452.47;4474326;31;33199;-64
2023/06/08 03:12:16;;;;;;;10.30;7.75;;;;;;;22.15;61.77;99456.88;4479554;32;33592;-68
2023/06/08 03:14:44;;;;;;;17.20;7.97;;;;;;;22.16;61.74;99455.88;4483264;32;33878;-64
2023/06/08 03:17:12;;;;;;;10.82;7.10;;;;;;;22.19;61.80;99455.50;4483938;32;34116;-66
2023/06/08 03:19:39;;;;;;;10.68;6.87;;;;;;;22.11;61.98;99456.44;4471052;31;33395;-64
2023/06/08 03:22:07;;;;;;;9.40;6.20;;;;;;;22.21;61.80;99456.12;4481119;32;32632;-66
2023/06/08 03:24:35;;;;;;;9.90;6.47;;;;;;;22.24;61.81;99463.91;4479963;31;34054;-65
2023/06/08 03:27:05;;;;;;;13.02;7.40;;;;;;;22.26;61.54;99457.22;4482950;32;33775;-66
2023/06/08 03:29:33;;;;;;;13.32;7.68;;;;;;;22.24;61.52;99462.03;4481664;32;33047;-66
2023/06/08 03:32:02;;;;;;;26.40;9.07;;;;;;;22.24;61.74;99459.28;4483081;32;32311;-66
2023/06/08 03:34:30;;;;;;;20.62;7.05;;;;;;;22.26;61.69;99459.94;4477163;32;34177;-65
2023/06/08 03:36:59;;;;;;;10.65;7.25;;;;;;;22.30;61.56;99463.97;4481710;31;33870;-67
2023/06/08 03:39:26;;;;;;;16.33;8.00;;;;;;;22.31;61.65;99470.25;4480503;32;33470;-65
2023/06/08 03:41:54;;;;;;;12.75;8.13;;;;;;;22.30;61.67;99458.50;4482820;32;33485;-68
2023/06/08 03:44:22;;;;;;;17.10;7.35;;;;;;;22.31;61.64;99462.06;4481905;32;33919;-67
2023/06/08 03:46:50;;;;;;;18.90;9.25;;;;;;;22.30;61.72;99461.25;4481808;31;33928;-68
2023/06/08 03:49:18;;;;;;;11.90;6.68;;;;;;;22.31;61.73;99467.53;4482254;32;33121;-65
2023/06/08 03:51:46;;;;;;;17.92;7.15;;;;;;;22.29;61.79;99466.91;4483663;32;33939;-69
2023/06/08 03:54:14;;;;;;;11.73;6.35;;;;;;;22.23;62.12;99457.63;4477700;31;34114;-67
2023/06/08 03:56:41;;;;;;;14.05;8.32;;;;;;;22.32;62.04;99475.53;4478329;31;33619;-69
2023/06/08 03:59:10;;;;;;;10.98;6.43;;;;;;;22.37;61.95;99474.91;4468826;32;33150;-68
2023/06/08 04:01:41;;;;;;;14.87;6.82;;;;;;;22.37;61.97;99472.19;4484418;32;33639;-65
2023/06/08 04:04:10;;;;;;;14.48;8.20;;;;;;;22.39;61.84;99466.56;4479287;32;34092;-67
2023/06/08 04:06:40;;;;;;;13.65;6.60;;;;;;;22.39;61.77;99477.47;4481102;31;34112;-68
2023/06/08 04:09:08;;;;;;;17.85;6.97;;;;;;;22.44;61.75;99459.47;4482355;32;32557;-67
2023/06/08 04:11:36;;;;;;;10.82;6.87;;;;;;;22.45;61.76;99463.03;4479561;32;34637;-67
2023/06/08 04:14:03;;;;;;;13.52;7.87;;;;;;;22.45;61.71;99455.69;4481738;32;33897;-70
2023/06/08 04:16:32;;;;;;;10.18;6.65;;;;;;;22.47;61.64;99456.34;4481115;31;33727;-69
2023/06/08 04:19:00;;;;;;;12.82;7.50;;;;;;;22.47;61.74;99459.09;4475772;32;33440;-67
2023/06/08 04:21:28;;;;;;;12.27;6.95;;;;;;;22.44;61.98;99464.94;4483557;32;33601;-68
2023/06/08 04:23:56;;;;;;;15.13;6.80;;;;;;;22.51;61.63;99463.09;4483695;32;34956;-67
2023/06/08 04:26:25;;;;;;;11.10;6.53;;;;;;;22.50;61.70;99461.41;4481511;31;33815;-70
2023/06/08 04:28:53;;;;;;;11.30;6.93;;;;;;;22.49;61.84;99464.31;4482187;32;32892;-68
2023/06/08 04:31:21;;;;;;;14.65;9.82;;;;;;;22.45;62.00;99463.88;4469815;31;34919;-67
2023/06/08 04:33:50;;;;;;;13.60;7.72;;;;;;;22.45;62.14;99466.59;4473990;32;33738;-66
2023/06/08 04:36:19;;;;;;;13.98;8.23;;;;;;;22.52;62.07;99461.19;4481784;32;32661;-69
2023/06/08 04:38:46;;;;;;;13.30;7.75;;;;;;;22.57;61.97;99469.63;4484135;32;33573;-65
2023/06/08 04:41:15;;;;;;;12.98;7.12;;;;;;;22.59;62.01;99464.81;4483981;32;33001;-68
2023/06/08 04:43:44;;;;;;;12.45;7.90;;;;;;;22.59;62.02;99474.87;4479787;32;35490;-66
2023/06/08 04:46:13;;;;;;;13.00;7.47;;;;;;;22.61;62.09;99475.53;4482541;31;32737;-65
2023/06/08 04:48:43;;;;;;;11.93;7.22;;;;;;;22.63;62.11;99470.69;4483914;32;33329;-65
2023/06/08 04:51:10;;;;;;;10.10;6.32;;;;;;;22.63;62.17;99474.31;4483770;32;33760;-66
2023/06/08 04:53:38;;;;;;;12.00;6.68;;;;;;;22.56;62.32;99474.22;4482700;31;32443;-68
2023/06/08 04:56:06;;;;;;;10.88;6.55;;;;;;;22.59;62.33;99469.44;4484333;32;34802;-67
2023/06/08 04:58:33;;;;;;;12.00;7.87;;;;;;;22.62;62.18;99477.22;4483159;32;33844;-65
2023/06/08 05:01:01;;;;;;;11.07;7.25;;;;;;;22.64;62.24;99477.88;4476326;31;33667;-65
2023/06/08 05:03:29;;;;;;;12.60;7.62;;;;;;;22.67;62.18;99478.31;4477646;31;34071;-68
2023/06/08 05:05:57;;;;;;;16.45;7.20;;;;;;;22.68;62.32;99479.97;4484257;31;33889;-68
2023/06/08 05:08:25;;;;;;;11.12;7.30;;;;;;;22.75;62.14;99488.22;4482964;32;33489;-67
2023/06/08 05:10:52;;;;;;;10.43;6.18;;;;;;;22.75;62.16;99488.22;4484121;32;34048;-69
2023/06/08 05:13:20;;;;;;;10.35;6.82;;;;;;;22.81;62.25;99487.41;4483698;31;32845;-69
2023/06/08 05:15:47;;;;;;;11.38;7.55;;;;;;;22.87;62.13;99492.06;4481857;31;31863;-70
2023/06/08 05:18:16;;;;;;;10.25;7.35;;;;;;;22.89;62.12;99489.13;4481047;31;33142;-68
2023/06/08 05:20:43;;;;;;;10.10;5.85;;;;;;;22.90;61.96;99490.84;4481198;32;32745;-67
2023/06/08 05:23:11;;;;;;;10.98;5.95;;;;;;;22.95;61.84;99491.09;4484226;32;33783;-67
2023/06/08 05:25:38;;;;;;;14.43;8.18;;;;;;;23.01;61.85;99482.94;4482584;32;32727;-67
2023/06/08 05:28:06;;;;;;;11.05;7.35;;;;;;;23.05;61.68;99483.41;4485158;32;33418;-69
2023/06/08 05:30:33;;;;;;;12.27;8.40;;;;;;;23.11;61.58;99487.19;4481619;32;35130;-69
2023/06/08 05:33:01;;;;;;;16.20;8.38;;;;;;;22.97;61.52;99491.75;4482838;31;32945;-69
2023/06/08 05:35:29;;;;;;;12.98;8.13;;;;;;;23.18;61.07;99488.94;4481887;32;33630;-70
2023/06/08 05:37:57;;;;;;;12.57;7.05;;;;;;;23.26;60.88;99496.09;4478703;32;33304;-67
2023/06/08 05:40:24;;;;;;;11.65;8.30;;;;;;;23.28;60.75;99493.19;4482369;32;34922;-70
2023/06/08 05:42:52;;;;;;;21.27;8.38;;;;;;;23.15;61.40;99494.78;4483480;31;35123;-69
2023/06/08 05:45:20;;;;;;;16.45;8.50;;;;;;;23.24;61.04;99492.72;4483914;32;34936;-68
2023/06/08 05:47:48;;;;;;;12.30;7.20;;;;;;;23.34;60.73;99487.75;4483574;31;34633;-69
2023/06/08 05:50:16;;;;;;;11.27;7.07;;;;;;;23.35;60.50;99497.59;4481942;32;35056;-66
2023/06/08 05:52:43;;;;;;;13.62;8.43;;;;;;;23.09;61.62;99492.88;4482581;32;33707;-67
2023/06/08 05:55:11;;;;;;;10.48;7.20;;;;;;;23.27;60.88;99488.75;4481404;32;33804;-69
2023/06/08 05:57:40;;;;;;;14.77;7.85;;;;;;;23.45;60.38;99494.50;4480472;32;33378;-67
2023/06/08 06:00:12;;;;;;;10.55;6.10;;;;;;;23.37;60.20;99489.19;4480687;32;35013;-69
2023/06/08 06:02:41;;;;;;;15.00;6.62;;;;;;;23.35;60.22;99492.16;4479121;31;35172;-68
2023/06/08 06:05:09;;;;;;;13.15;7.43;;;;;;;23.27;60.40;99486.84;4475247;31;34964;-69
2023/06/08 06:07:36;;;;;;;14.07;8.05;;;;;;;23.35;60.19;99485.84;4483527;32;33562;-70
2023/06/08 06:10:05;;;;;;;10.27;6.95;;;;;;;23.36;60.15;99488.34;4482558;32;33981;-68
2023/06/08 06:12:34;;;;;;;20.40;8.05;;;;;;;23.24;60.74;99492.72;4480886;32;32821;-67
2023/06/08 06:15:01;;;;;;;15.25;8.52;;;;;;;23.32;60.51;99481.63;4482184;32;34736;-67
2023/06/08 06:17:31;;;;;;;11.77;8.50;;;;;;;23.25;60.48;99488.94;4480272;31;33543;-70
2023/06/08 06:19:58;;;;;;;12.40;8.43;;;;;;;23.13;61.03;99496.03;4479076;31;33243;-69
2023/06/08 06:22:26;;;;;;;12.82;8.18;;;;;;;23.35;60.44;99489.41;4481891;32;33830;-72
2023/06/08 06:24:54;;;;;;;13.00;7.70;;;;;;;23.20;60.71;99494.16;4476835;31;34017;-69
2023/06/08 06:27:21;;;;;;;12.13;8.07;;;;;;;23.43;60.13;99489.22;4480450;32;33361;-69
2023/06/08 06:29:51;;;;;;;17.37;9.48;;;;;;;23.25;60.68;99488.94;4482077;31;33885;-68
2023/06/08 06:32:20;;;;;;;13.30;8.93;;;;;;;23.47;59.98;99486.94;4478645;32;34157;-69
2023/06/08 06:34:47;;;;;;;15.75;9.95;;;;;;;23.63;59.83;99491.22;4481131;31;34739;-70
2023/06/08 06:37:15;;;;;;;14.00;8.13;;;;;;;23.37;60.93;99481.00;4484309;32;33498;-70
2023/06/08 06:39:43;;;;;;;16.15;9.60;;;;;;;23.39;60.47;99484.38;4483566;32;33962;-68
2023/06/08 06:42:10;;;;;;;14.32;9.50;;;;;;;23.63;59.79;99483.84;4483013;32;32214;-69
2023/06/08 06:44:40;;;;;;;16.05;9.73;;;;;;;23.60;60.01;99477.97;4479538;31;34942;-67
2023/06/08 06:47:08;;;;;;;11.90;8.15;;;;;;;23.76;59.89;99479.50;4482915;31;33341;-68
2023/06/08 06:49:35;;;;;;;14.40;9.38;;;;;;;23.85;59.89;99483.69;4482772;31;33589;-67
2023/06/08 06:52:04;;;;;;;13.45;7.97;;;;;;;23.96;59.66;99483.09;4480325;31;33766;-67
2023/06/08 06:54:32;;;;;;;17.15;9.45;;;;;;;24.08;58.90;99483.34;4483131;32;33779;-67
2023/06/08 06:56:59;;;;;;;13.40;8.60;;;;;;;23.70;60.01;99486.62;4482196;32;33344;-67
2023/06/08 06:59:28;;;;;;;14.45;9.77;;;;;;;23.34;60.97;99489.59;4484553;32;32188;-66
2023/06/08 07:01:56;;;;;;;13.65;8.05;;;;;;;23.14;61.28;99486.78;4476894;31;34273;-66
2023/06/08 07:04:23;;;;;;;15.85;8.38;;;;;;;23.40;60.91;99486.06;4476707;32;33883;-66
2023/06/08 07:06:53;;;;;;;13.60;9.38;;;;;;;23.49;60.77;99479.38;4478428;32;32229;-73
2023/06/08 07:09:21;;;;;;;16.52;9.52;;;;;;;23.45;61.03;99484.41;4478099;31;34797;-68
2023/06/08 07:11:49;;;;;;;20.20;8.35;;;;;;;23.43;61.46;99482.91;4479209;32;32915;-67
2023/06/08 07:14:32;;;;;;;17.67;9.20;;;;;;;23.35;61.83;99477.66;4480078;31;33780;-67
2023/06/08 07:16:59;;;;;;;16.90;10.38;;;;;;;23.45;61.51;99484.41;4483153;32;33247;-68
2023/06/08 07:19:27;;;;;;;17.00;10.82;;;;;;;23.27;61.95;99481.38;4479715;32;33953;-68
2023/06/08 07:21:55;;;;;;;16.62;11.10;;;;;;;23.40;61.73;99483.31;4476608;31;34023;-73
2023/06/08 07:24:33;;;;;;;17.23;11.20;;;;;;;23.42;61.32;99483.97;4481379;31;34902;-70
2023/06/08 07:27:21;;;;;;;21.70;12.88;;;;;;;23.11;62.13;99482.56;4468208;32;33476;-68
2023/06/08 07:29:48;;;;;;;16.30;9.52;;;;;;;23.15;62.48;99486.59;4481516;31;32497;-76
2023/06/08 07:32:16;;;;;;;15.60;10.27;;;;;;;23.35;62.16;99488.56;4477909;31;31610;-69
2023/06/08 07:34:44;;;;;;;21.92;11.68;;;;;;;22.78;63.68;99488.66;4477622;32;35028;-68
2023/06/08 07:37:11;;;;;;;17.67;12.70;;;;;;;22.73;64.04;99480.25;4482491;32;31887;-68
2023/06/08 07:39:39;;;;;;;20.65;12.32;;;;;;;23.11;63.02;99485.28;4479125;32;33854;-68
2023/06/08 07:42:07;;;;;;;16.77;11.73;;;;;;;23.15;62.77;99483.03;4481636;32;31862;-68
2023/06/08 07:44:34;;;;;;;19.37;11.95;;;;;;;23.35;62.84;99483.13;4475749;32;34774;-68
2023/06/08 07:47:02;;;;;;;17.95;11.40;;;;;;;23.31;62.97;99490.87;4478414;31;34470;-68
2023/06/08 07:49:30;;;;;;;15.93;11.77;;;;;;;23.17;62.20;99484.50;4477908;32;101020;-67
2023/06/08 07:51:58;;;;;;;17.25;10.88;;;;;;;23.55;61.54;99485.91;4470060;31;33897;-67
2023/06/08 07:54:25;;;;;;;24.80;11.82;;;;;;;23.41;62.74;99490.50;4483844;32;34875;-67
2023/06/08 07:56:53;;;;;;;15.55;10.40;;;;;;;23.12;63.37;99480.72;4482063;32;34589;-69
2023/06/08 07:59:20;;;;;;;14.43;9.90;;;;;;;23.43;62.35;99485.66;4483727;32;32564;-66
2023/06/08 08:01:48;;;;;;;15.80;11.63;;;;;;;23.52;62.73;99484.44;4480183;32;34343;-67
2023/06/08 08:04:16;;;;;;;21.48;12.40;;;;;;;23.07;62.99;99485.91;4481403;31;33923;-66
2023/06/08 08:06:43;;;;;;;16.33;10.98;;;;;;;23.31;62.42;99479.12;4483239;32;34749;-67
2023/06/08 08:09:11;;;;;;;16.60;10.98;;;;;;;23.41;62.18;99479.56;4478451;32;33905;-68
2023/06/08 08:11:38;;;;;;;19.33;13.50;;;;;;;23.66;61.31;99475.25;4480494;31;34962;-68
2023/06/08 08:14:09;;;;;;;24.23;14.20;;;;;;;23.42;62.21;99478.50;4481252;32;35075;-67
2023/06/08 08:16:37;;;;;;;20.15;11.90;;;;;;;23.25;62.93;99478.88;4480884;31;33707;-69
2023/06/08 08:19:05;;;;;;;19.17;11.00;;;;;;;23.12;63.46;99476.09;4480692;32;33952;-67
2023/06/08 08:21:33;;;;;;;23.27;12.10;;;;;;;23.34;62.15;99481.41;4479178;32;33074;-67
2023/06/08 08:24:01;;;;;;;18.33;11.00;;;;;;;23.63;61.57;99474.81;4480690;31;33749;-67
2023/06/08 08:26:29;;;;;;;14.43;9.70;;;;;;;23.35;61.53;99486.69;4480651;32;32608;-70
2023/06/08 08:28:58;;;;;;;16.05;12.27;;;;;;;23.71;61.36;99478.22;4483976;32;33982;-69
2023/06/08 08:31:26;;;;;;;16.20;11.27;;;;;;;23.69;61.62;99472.12;4478364;31;35123;-69
2023/06/08 08:33:54;;;;;;;16.85;9.60;;;;;;;23.85;61.32;99478.25;4474730;32;33802;-69
2023/06/08 08:36:21;;;;;;;15.52;10.80;;;;;;;23.71;61.21;99472.75;4476638;31;33252;-69
2023/06/08 08:38:49;;;;;;;16.15;10.95;;;;;;;23.40;62.22;99470.53;4477788;32;33661;-66
2023/06/08 08:41:19;;;;;;;15.93;9.68;;;;;;;23.82;61.79;99465.84;4480910;32;33962;-67
2023/06/08 08:43:58;;;;;;;13.68;8.85;;;;;;;23.97;61.36;99470.28;4477474;31;33825;-70
2023/06/08 08:46:27;;;;;;;15.45;9.65;;;;;;;24.24;60.67;99473.88;4476238;31;33457;-67
2023/06/08 08:49:00;;;;;;;13.62;8.90;;;;;;;24.03;61.05;99469.44;4469051;32;35236;-69
2023/06/08 08:51:32;;;;;;;18.35;9.07;;;;;;;24.30;59.70;99473.91;4481625;32;35253;-70
2023/06/08 08:54:02;;;;;;;14.80;10.20;;;;;;;24.12;60.62;99479.12;4482734;32;33834;-67
2023/06/08 08:56:35;;;;;;;12.98;9.00;;;;;;;23.56;60.90;99477.50;4480643;32;33322;-71
2023/06/08 08:59:04;;;;;;;15.00;10.73;;;;;;;24.22;59.73;99478.72;4474139;32;34813;-70
2023/06/08 09:01:33;;;;;;;15.65;10.85;;;;;;;24.25;58.89;99473.66;4474249;32;34465;-72
2023/06/08 09:04:01;;;;;;;17.83;9.30;;;;;;;24.14;59.54;99472.41;4478922;32;34009;-70
2023/06/08 09:06:29;;;;;;;17.02;11.35;;;;;;;24.00;60.01;99475.34;4473287;32;33007;-68
2023/06/08 09:08:57;;;;;;;13.10;8.32;;;;;;;24.07;60.24;99473.44;4479417;32;33980;-68
2023/06/08 09:11:25;;;;;;;13.65;9.50;;;;;;;24.18;60.07;99465.47;4476657;32;33906;-68
2023/06/08 09:14:06;;;;;;;13.13;9.18;;;;;;;24.36;59.71;99467.56;4476206;32;36695;-67
2023/06/08 09:16:43;;;;;;;14.07;9.30;;;;;;;24.42;58.89;99462.34;4476464;31;32061;-65
2023/06/08 09:19:11;;;;;;;13.27;8.20;;;;;;;24.59;58.09;99469.91;4474307;32;34670;-69
2023/06/08 09:21:41;;;;;;;17.87;8.30;;;;;;;24.27;58.83;99467.97;4475088;32;35193;-68
2023/06/08 09:24:11;;;;;;;12.68;7.60;;;;;;;24.55;58.55;99462.31;4475111;32;33084;-66
2023/06/08 09:26:50;;;;;;;13.60;8.90;;;;;;;24.56;58.56;99459.37;4475874;32;33355;-67
2023/06/08 09:29:40;;;;;;;15.23;9.63;;;;;;;24.78;57.96;99453.66;4477050;31;35063;-68
2023/06/08 09:32:09;;;;;;;12.57;9.27;;;;;;;24.66;57.85;99453.47;4481164;32;33959;-69
2023/06/08 09:34:53;;;;;;;13.27;8.07;;;;;;;24.79;57.03;99449.88;4478745;32;33667;-67
2023/06/08 09:37:31;;;;;;;13.88;7.55;;;;;;;25.10;56.27;99438.19;4481197;32;33342;-68
2023/06/08 09:40:01;;;;;;;14.68;8.80;;;;;;;25.01;54.97;99450.44;4482175;32;33843;-68
2023/06/08 09:42:53;;;;;;;12.35;8.20;;;;;;;24.80;55.83;99444.16;4476888;32;33854;-68
2023/06/08 09:45:21;;;;;;;12.75;9.10;;;;;;;24.97;56.49;99439.06;4479223;32;32315;-68
2023/06/08 09:47:49;;;;;;;13.80;8.95;;;;;;;25.09;55.66;99428.28;4483667;31;33023;-68
2023/06/08 09:50:18;;;;;;;13.80;7.80;;;;;;;25.07;55.27;99439.47;4482165;32;33471;-69
2023/06/08 09:52:47;;;;;;;12.90;8.40;;;;;;;25.03;56.08;99440.09;4480155;32;33617;-69
2023/06/08 09:55:15;;;;;;;14.30;8.00;;;;;;;25.25;55.63;99448.91;4473365;31;34969;-68
2023/06/08 09:57:44;;;;;;;11.50;7.18;;;;;;;25.55;54.55;99443.69;4470104;32;34401;-68
2023/06/08 10:00:15;;;;;;;13.98;7.62;;;;;;;25.50;54.33;99438.03;4477924;32;33248;-68
2023/06/08 10:02:53;;;;;;;11.75;7.37;;;;;;;25.12;56.01;99432.50;4474784;31;35080;-68
2023/06/08 10:05:22;;;;;;;11.93;7.57;;;;;;;24.80;56.78;99430.50;4477716;32;32677;-68
2023/06/08 10:07:52;;;;;;;11.15;7.95;;;;;;;25.12;55.26;99418.81;4475603;32;34631;-68
2023/06/08 10:10:24;;;;;;;11.85;6.47;;;;;;;25.44;54.64;99428.78;4472116;32;34924;-68
2023/06/08 10:12:52;;;;;;;9.73;5.57;;;;;;;25.19;54.20;99422.37;4480020;32;34010;-68
2023/06/08 10:15:21;;;;;;;9.77;6.60;;;;;;;25.55;53.68;99413.53;4476479;32;33890;-68
2023/06/08 10:17:50;;;;;;;10.43;5.90;;;;;;;25.34;55.17;99417.47;4471623;31;34575;-68
2023/06/08 10:20:18;;;;;;;11.50;7.37;;;;;;;25.59;55.28;99403.84;4474033;32;33204;-68
2023/06/08 10:22:46;;;;;;;11.43;6.85;;;;;;;25.54;54.50;99407.22;4478346;32;34029;-71
2023/06/08 10:25:16;;;;;;;14.55;8.75;;;;;;;25.61;54.17;99401.72;4475054;32;33771;-71
2023/06/08 10:27:51;;;;;;;10.95;7.20;;;;;;;25.66;53.57;99401.91;4471349;32;32145;-71
2023/06/08 10:30:33;;;;;;;14.38;8.00;;;;;;;25.77;53.43;99397.59;4476723;32;34093;-71
2023/06/08 10:33:12;;;;;;;11.02;8.02;;;;;;;25.52;53.47;99411.25;4478749;32;35033;-71
2023/06/08 10:35:40;;;;;;;14.57;7.25;;;;;;;25.35;54.42;99404.59;4478712;31;34736;-71
2023/06/08 10:38:13;;;;;;;13.45;8.07;;;;;;;25.72;54.12;99403.75;4477539;32;33326;-71
2023/06/08 10:40:50;;;;;;;14.87;7.70;;;;;;;24.94;56.87;99394.84;4477169;32;33702;-71
2023/06/08 10:43:26;;;;;;;13.60;8.95;;;;;;;25.31;55.77;99393.25;4477226;32;33648;-71
2023/06/08 10:46:13;;;;;;;11.85;7.10;;;;;;;24.05;59.15;99388.91;4477016;32;34906;-71
2023/06/08 10:48:42;;;;;;;13.00;8.10;;;;;;;24.54;58.65;99392.25;4478697;31;34528;-71
2023/06/08 10:51:12;;;;;;;17.48;8.38;;;;;;;24.68;58.66;99391.16;4475958;32;34774;-71
2023/06/08 10:53:41;;;;;;;13.40;7.68;;;;;;;25.13;56.79;99387.66;4477537;32;34176;-71
2023/06/08 10:56:09;;;;;;;14.13;8.82;;;;;;;24.99;58.14;99381.38;4474981;32;33912;-72
2023/06/08 10:58:51;;;;;;;12.52;7.57;;;;;;;25.14;58.43;99373.75;4474799;32;33185;-71
2023/06/08 11:01:25;;;;;;;15.13;9.30;;;;;;;25.18;58.81;99375.00;4473199;32;32674;-71
2023/06/08 11:03:57;;;;;;;14.38;9.35;;;;;;;24.46;60.56;99381.53;4482221;31;33989;-71
2023/06/08 11:06:29;;;;;;;16.50;8.48;;;;;;;24.94;59.57;99383.91;4475916;32;32883;-72
2023/06/08 11:08:56;;;;;;;10.82;7.10;;;;;;;24.74;60.17;99379.34;4476516;32;33518;-71
2023/06/08 11:11:23;;;;;;;8.50;5.12;;;;;;;24.66;60.67;99387.81;4474407;32;32890;-69
2023/06/08 11:13:52;;;;;;;7.15;5.00;;;;;;;24.26;61.10;99389.72;4476048;32;34853;-69
2023/06/08 11:16:20;;;;;;;12.63;6.82;;;;;;;24.57;60.04;99373.50;4479205;31;33361;-69
2023/06/08 11:18:47;;;;;;;13.10;8.50;;;;;;;24.94;58.00;99378.44;4478377;32;33072;-68
2023/06/08 11:21:23;;;;;;;14.23;8.10;;;;;;;25.14;57.28;99367.44;4474412;31;33855;-67
2023/06/08 11:23:50;;;;;;;13.40;8.93;;;;;;;25.06;56.96;99377.53;4481117;32;33977;-68
2023/06/08 11:26:21;;;;;;;16.15;9.50;;;;;;;25.29;56.36;99374.28;4471994;31;33796;-68
2023/06/08 11:28:49;;;;;;;15.23;8.90;;;;;;;25.11;56.90;99368.69;4474467;32;33517;-68
2023/06/08 11:31:17;;;;;;;11.90;9.63;;;;;;;25.56;55.41;99368.66;4476331;32;34563;-67
2023/06/08 11:33:51;;;;;;;14.48;9.40;;;;;;;25.49;55.81;99370.59;4477680;32;33761;-69
2023/06/08 11:36:19;;;;;;;15.82;9.93;;;;;;;25.49;55.85;99373.31;4476680;32;34070;-69